Time;durP1;ratioP1;P1;durP2;ratioP2;P2;SDS_P1;SDS_P2;PMS_P1;PMS_P2;Temp;Humidity;BMP_temperature;BMP_pressure;BME280_temperature;BME280_humidity;BME280_pressure;Samples;Min_cycle;Max_cycle;Signal;HPM_P1;HPM_P2
2022/04/28 00:00:40;;;;;;;1.50;1.40;;;;;;;8.33;82.49;95777.56;1787168;80;20979;-68
2022/04/28 00:03:08;;;;;;;1.20;1.00;;;;;;;8.34;82.63;95784.55;1786879;80;21485;-68
2022/04/28 00:05:35;;;;;;;1.20;1.10;;;;;;;8.26;82.35;95777.17;1787206;80;21003;-68
2022/04/28 00:08:04;;;;;;;3.03;1.23;;;;;;;8.31;82.87;95777.56;1787285;80;21002;-68
2022/04/28 00:10:30;;;;;;;1.33;1.23;;;;;;;8.37;82.81;95789.81;1787021;80;21015;-68
2022/04/28 00:12:57;;;;;;;1.60;1.10;;;;;;;8.40;82.78;95784.11;1787416;80;21015;-68
2022/04/28 00:15:24;;;;;;;1.80;1.30;;;;;;;8.45;82.73;95783.64;1787298;80;20980;-68
2022/04/28 00:17:51;;;;;;;1.87;1.00;;;;;;;8.48;82.63;95780.56;1787088;80;20995;-68
2022/04/28 00:20:18;;;;;;;3.47;1.03;;;;;;;8.41;82.12;95784.98;1787106;80;21003;-68
2022/04/28 00:22:44;;;;;;;1.40;1.20;;;;;;;8.40;82.41;95781.48;1787002;80;21007;-68
2022/04/28 00:25:11;;;;;;;0.90;0.87;;;;;;;8.49;82.97;95786.23;1786891;80;21044;-68
2022/04/28 00:27:38;;;;;;;2.03;1.27;;;;;;;8.56;82.48;95786.18;1787165;80;20999;-68
2022/04/28 00:30:08;;;;;;;3.37;1.03;;;;;;;8.45;82.18;95779.70;1787063;80;21441;-68
2022/04/28 00:32:35;;;;;;;1.40;1.10;;;;;;;8.44;83.22;95780.59;1786979;80;20987;-68
2022/04/28 00:35:02;;;;;;;1.20;1.10;;;;;;;8.48;83.08;95775.30;1786971;80;21014;-68
2022/04/28 00:37:30;;;;;;;1.83;1.20;;;;;;;8.49;82.68;95765.20;1787002;80;20995;-68
2022/04/28 00:39:57;;;;;;;1.13;1.00;;;;;;;8.45;82.77;95766.55;1787002;80;20998;-68
2022/04/28 00:42:24;;;;;;;1.30;1.20;;;;;;;8.52;82.83;95756.00;1787233;80;21003;-68
2022/04/28 00:44:52;;;;;;;2.40;1.27;;;;;;;8.55;82.54;95753.34;1787023;80;21505;-68
2022/04/28 00:47:18;;;;;;;1.50;1.37;;;;;;;8.47;82.39;95749.45;1786761;80;21015;-68
2022/04/28 00:52:33;;;;;;;4.37;1.50;;;;;;;8.53;82.74;95757.73;1789170;80;21058;-68
2022/04/28 00:55:01;;;;;;;3.03;1.50;;;;;;;8.44;82.77;95752.98;1795632;80;20999;-68
2022/04/28 00:57:33;;;;;;;1.23;1.00;;;;;;;8.45;83.53;95746.83;1795540;80;21503;-68
2022/04/28 01:00:00;;;;;;;2.50;1.50;;;;;;;8.41;82.86;95746.41;1764351;80;21500;-68
2022/04/28 01:02:27;;;;;;;2.97;1.60;;;;;;;8.37;83.08;95745.98;1794941;80;21098;-68
2022/04/28 01:04:54;;;;;;;4.07;1.57;;;;;;;8.41;82.86;95746.41;1795528;80;21503;-68
2022/04/28 01:07:21;;;;;;;2.83;1.50;;;;;;;8.36;82.64;95736.34;1795329;80;21006;-68
2022/04/28 01:09:49;;;;;;;4.77;2.27;;;;;;;8.35;82.97;95746.44;1795429;80;21444;-68
2022/04/28 01:12:19;;;;;;;1.80;1.70;;;;;;;8.38;82.93;95745.09;1795456;80;21090;-68
2022/04/28 01:14:50;;;;;;;2.10;1.70;;;;;;;8.41;83.12;95749.03;1795518;80;20998;-68
2022/04/28 01:17:17;;;;;;;2.00;1.70;;;;;;;8.44;82.83;95742.46;1795457;80;21035;-68
2022/04/28 01:19:45;;;;;;;1.50;1.37;;;;;;;8.44;82.78;95742.88;1794435;80;20990;-68
2022/04/28 01:22:12;;;;;;;1.53;1.43;;;;;;;8.41;83.01;95742.46;1795429;80;20991;-68
2022/04/28 01:24:39;;;;;;;3.17;1.87;;;;;;;8.30;84.03;95742.97;1795140;80;21066;-68
2022/04/28 01:27:07;;;;;;;2.37;2.17;;;;;;;8.19;83.59;95735.62;1795049;80;21065;-68
2022/04/28 01:29:34;;;;;;;2.43;1.73;;;;;;;8.18;83.48;95737.34;1795298;80;21018;-68
2022/04/28 01:32:03;;;;;;;1.87;1.63;;;;;;;8.17;83.29;95736.92;1795349;80;21014;-68
2022/04/28 01:34:31;;;;;;;1.57;1.47;;;;;;;8.11;84.32;95743.52;1795423;80;20975;-68
2022/04/28 01:36:58;;;;;;;1.60;1.50;;;;;;;8.13;83.82;95731.25;1795136;80;21070;-68
2022/04/28 01:39:25;;;;;;;3.13;1.80;;;;;;;8.15;83.69;95733.43;1795480;80;21002;-68
2022/04/28 01:41:52;;;;;;;1.87;1.70;;;;;;;8.17;84.04;95729.05;1795025;80;21543;-68
2022/04/28 01:44:19;;;;;;;1.87;1.73;;;;;;;8.19;84.35;95725.10;1795563;80;21014;-68
2022/04/28 01:46:46;;;;;;;2.93;1.60;;;;;;;8.15;86.24;95721.61;1795533;80;21449;-68
2022/04/28 01:49:31;;;;;;;3.20;2.50;;;;;;;8.12;85.04;95717.69;1795179;80;21003;-68
2022/04/28 01:55:04;;;;;;;1.60;1.50;;;;;;;8.16;84.94;95708.88;1759689;81;21020;-68
2022/04/28 01:57:49;;;;;;;2.57;1.70;;;;;;;8.30;84.97;95699.59;1759521;81;21522;-68
2022/04/28 02:00:24;;;;;;;3.83;1.90;;;;;;;8.34;85.12;95704.37;1758666;81;21040;-68
2022/04/28 02:02:52;;;;;;;2.17;1.90;;;;;;;8.28;84.25;95702.67;1759418;81;21099;-68
2022/04/28 02:05:19;;;;;;;3.03;1.63;;;;;;;8.23;84.29;95705.33;1759887;81;21419;-68
2022/04/28 02:07:47;;;;;;;2.17;1.63;;;;;;;8.27;85.63;95704.88;1759832;81;21486;-68
2022/04/28 02:10:13;;;;;;;2.03;1.60;;;;;;;8.35;85.98;95699.56;1759762;81;20976;-68
2022/04/28 02:12:40;;;;;;;2.30;2.10;;;;;;;8.41;85.80;95700.84;1759837;81;21036;-68
2022/04/28 02:15:10;;;;;;;2.73;2.53;;;;;;;8.45;85.69;95703.89;1729759;81;21533;-68
2022/04/28 02:17:56;;;;;;;4.30;3.40;;;;;;;8.57;85.84;95697.20;1759625;81;21048;-68
2022/04/28 02:20:22;;;;;;;4.57;4.00;;;;;;;8.74;85.80;95690.90;1760140;81;21004;-68
2022/04/28 02:22:49;;;;;;;4.63;3.73;;;;;;;8.80;84.99;95689.09;1759467;81;21024;-68
2022/04/28 02:25:17;;;;;;;3.23;2.93;;;;;;;8.81;84.71;95696.53;1759784;81;21008;-68
2022/04/28 02:27:44;;;;;;;4.57;2.33;;;;;;;8.72;84.71;95693.56;1759921;81;21033;-68
2022/04/28 02:30:12;;;;;;;4.43;3.07;;;;;;;8.73;84.89;95695.74;1759734;81;21028;-68
2022/04/28 02:35:25;;;;;;;1.83;1.30;;;;;;;8.80;84.82;95699.61;1760030;81;20993;-69
2022/04/28 02:37:52;;;;;;;2.53;1.37;;;;;;;8.84;84.32;95697.81;1759843;81;21466;-68
2022/04/28 02:40:19;;;;;;;1.37;1.27;;;;;;;8.80;83.94;95694.80;1730287;81;21056;-68
2022/04/28 02:42:47;;;;;;;1.37;1.27;;;;;;;8.82;84.31;95694.31;1759856;81;21023;-68
2022/04/28 02:45:13;;;;;;;1.87;1.50;;;;;;;8.86;84.66;95696.05;1730148;81;21514;-68
2022/04/28 02:47:42;;;;;;;1.67;1.57;;;;;;;8.87;84.86;95692.55;1759306;81;21027;-68
2022/04/28 02:50:11;;;;;;;2.37;1.90;;;;;;;8.92;84.80;95684.57;1760034;81;21012;-68
2022/04/28 02:52:40;;;;;;;2.77;2.13;;;;;;;8.96;84.88;95690.23;1762894;80;21044;-68
2022/04/28 02:55:08;;;;;;;5.00;2.90;;;;;;;9.00;84.75;95690.20;1787392;80;20980;-68
2022/04/28 02:57:36;;;;;;;3.93;2.93;;;;;;;8.99;84.45;95690.20;1787185;80;21073;-68
2022/04/28 03:00:05;;;;;;;3.30;2.70;;;;;;;8.96;84.28;95688.92;1787162;80;21014;-68
2022/04/28 03:02:35;;;;;;;4.17;3.10;;;;;;;8.89;83.64;95685.47;1787086;80;21003;-68
2022/04/28 03:05:04;;;;;;;5.47;4.07;;;;;;;8.82;84.58;95695.22;1786953;80;21046;-68
2022/04/28 03:13:04;;;;;;;46.43;22.03;;;;;;;8.76;84.96;95690.45;1787156;80;21010;-68
2022/04/28 03:15:32;;;;;;;18.33;12.47;;;;;;;8.70;85.18;95694.02;1787332;80;21003;-68
2022/04/28 03:17:59;;;;;;;15.57;9.63;;;;;;;8.66;85.69;95692.29;1787066;80;21011;-68
2022/04/28 03:20:26;;;;;;;23.30;13.67;;;;;;;8.63;86.14;95689.70;1787004;80;21000;-68
2022/04/28 03:22:52;;;;;;;11.13;6.97;;;;;;;8.65;85.95;95703.71;1749779;80;21030;-68
2022/04/28 03:25:19;;;;;;;6.43;4.13;;;;;;;8.68;85.89;95703.67;1787340;80;21014;-68
2022/04/28 03:27:46;;;;;;;5.60;4.00;;;;;;;8.71;86.01;95701.45;1787412;80;21023;-68
2022/04/28 03:30:13;;;;;;;5.97;4.67;;;;;;;8.72;85.76;95705.81;1787358;80;21011;-68
2022/04/28 03:32:45;;;;;;;6.00;4.03;;;;;;;8.72;85.69;95708.45;1768968;80;20983;-68
2022/04/28 03:35:12;;;;;;;6.53;4.50;;;;;;;8.69;85.66;95713.75;1787235;80;21457;-68
2022/04/28 03:37:39;;;;;;;8.30;5.37;;;;;;;8.64;84.99;95722.58;1787142;80;21448;-66
2022/04/28 03:40:08;;;;;;;10.27;5.90;;;;;;;8.59;85.82;95719.11;1786859;80;20983;-65
2022/04/28 03:42:34;;;;;;;7.17;5.70;;;;;;;8.62;85.89;95722.16;1787237;80;21457;-66
2022/04/28 03:45:02;;;;;;;10.37;4.70;;;;;;;8.64;85.70;95722.58;1787187;80;20991;-66
2022/04/28 03:47:33;;;;;;;7.23;4.50;;;;;;;8.68;85.86;95720.77;1787249;80;20987;-66
2022/04/28 03:50:00;;;;;;;8.47;4.83;;;;;;;8.72;86.07;95722.92;1787386;80;21038;-66
2022/04/28 03:52:27;;;;;;;5.37;4.60;;;;;;;8.72;86.50;95716.34;1787252;80;21065;-66
2022/04/28 03:54:54;;;;;;;6.30;4.30;;;;;;;8.74;86.33;95722.47;1786695;80;21094;-66
2022/04/28 03:57:22;;;;;;;6.10;4.60;;;;;;;8.83;86.47;95719.76;1787443;80;21017;-66
2022/04/28 03:59:49;;;;;;;5.87;3.80;;;;;;;8.90;86.16;95714.88;1787104;80;21469;-66
2022/04/28 04:02:34;;;;;;;8.83;4.73;;;;;;;8.87;85.73;95707.02;1787210;80;21066;-66
2022/04/28 04:05:02;;;;;;;7.13;4.63;;;;;;;8.84;85.75;95703.97;1787100;80;21055;-65
2022/04/28 04:07:31;;;;;;;5.90;4.50;;;;;;;8.77;86.01;95704.02;1786761;80;21007;-66
2022/04/28 04:10:13;;;;;;;7.07;4.40;;;;;;;8.73;86.11;95704.95;1763409;80;21046;-66
2022/04/28 04:12:45;;;;;;;6.93;4.60;;;;;;;8.68;87.06;95710.70;1786469;80;21042;-66
2022/04/28 04:15:13;;;;;;;7.37;4.03;;;;;;;8.74;87.19;95715.44;1782045;80;21505;-66
2022/04/28 04:17:55;;;;;;;5.97;3.93;;;;;;;8.79;87.07;95715.41;1786989;80;21050;-68
2022/04/28 04:20:25;;;;;;;5.30;4.20;;;;;;;8.81;86.76;95724.16;1786801;80;21118;-68
2022/04/28 04:22:56;;;;;;;7.23;4.53;;;;;;;8.81;86.85;95725.02;1754051;80;21007;-68
2022/04/28 04:25:22;;;;;;;5.10;3.53;;;;;;;8.88;87.17;95721.91;1785973;80;21007;-68
2022/04/28 04:27:50;;;;;;;9.23;4.13;;;;;;;8.91;86.48;95728.89;1786793;80;21031;-68
2022/04/28 04:33:05;;;;;;;6.30;4.27;;;;;;;8.94;86.10;95732.35;1786782;80;21037;-68
2022/04/28 04:35:33;;;;;;;5.67;3.87;;;;;;;8.98;86.49;95738.02;1787097;80;21536;-68
2022/04/28 04:38:00;;;;;;;8.87;5.57;;;;;;;9.05;86.92;95738.84;1787126;80;21022;-68
2022/04/28 04:40:28;;;;;;;5.83;4.77;;;;;;;9.08;86.59;95746.25;1787097;80;20999;-68
2022/04/28 04:42:56;;;;;;;8.13;4.13;;;;;;;9.08;85.91;95744.07;1787004;80;20967;-69
2022/04/28 04:45:23;;;;;;;12.10;6.70;;;;;;;9.02;85.55;95743.70;1787026;80;21038;-68
2022/04/28 04:48:10;;;;;;;11.67;7.17;;;;;;;8.99;86.38;95744.16;1786971;80;21003;-68
2022/04/28 04:50:42;;;;;;;8.57;7.10;;;;;;;9.06;87.09;95748.02;1787157;80;21015;-68
2022/04/28 04:53:10;;;;;;;11.73;6.83;;;;;;;9.01;87.12;95747.65;1786088;80;21441;-68
2022/04/28 04:55:37;;;;;;;7.30;4.60;;;;;;;9.08;86.94;95741.44;1795439;80;20999;-68
2022/04/28 04:58:06;;;;;;;6.83;5.00;;;;;;;9.12;87.05;95750.16;1795490;80;21014;-69
2022/04/28 05:00:33;;;;;;;9.20;5.03;;;;;;;9.23;87.30;95741.72;1795133;80;21007;-68
2022/04/28 05:03:19;;;;;;;8.97;4.30;;;;;;;9.26;86.58;95741.68;1795175;80;21485;-68
2022/04/28 05:06:00;;;;;;;5.97;3.90;;;;;;;9.24;86.70;95743.00;1795385;80;21046;-68
2022/04/28 05:08:31;;;;;;;8.83;6.03;;;;;;;9.20;86.94;95740.45;1795177;80;21031;-68
2022/04/28 05:11:03;;;;;;;10.70;7.30;;;;;;;9.26;87.22;95740.36;1794780;80;21010;-68
2022/04/28 05:13:30;;;;;;;9.07;6.70;;;;;;;9.33;86.89;95749.08;1795484;80;21062;-68
2022/04/28 05:15:58;;;;;;;13.13;8.87;;;;;;;9.35;86.85;95748.17;1795524;80;20994;-69
2022/04/28 05:18:44;;;;;;;13.23;10.33;;;;;;;9.41;86.72;95750.72;1793479;80;21015;-69
2022/04/28 05:21:22;;;;;;;15.17;9.83;;;;;;;9.52;86.81;95752.80;1760597;80;20994;-68
2022/04/28 05:23:51;;;;;;;13.80;9.20;;;;;;;9.62;86.48;95750.03;1766559;80;21023;-69
2022/04/28 05:26:35;;;;;;;12.33;7.27;;;;;;;9.61;86.01;95750.94;1795383;80;20995;-69
2022/04/28 05:29:07;;;;;;;7.90;6.17;;;;;;;9.56;85.89;95752.75;1789785;80;21500;-68
2022/04/28 05:31:36;;;;;;;8.33;6.00;;;;;;;9.53;85.97;95753.67;1788185;80;20978;-68
2022/04/28 05:34:19;;;;;;;9.93;7.33;;;;;;;9.55;86.17;95761.11;1794833;80;21098;-68
2022/04/28 05:36:50;;;;;;;9.23;6.70;;;;;;;9.56;86.11;95758.89;1766572;80;20987;-68
2022/04/28 05:39:17;;;;;;;9.20;6.77;;;;;;;9.57;85.92;95758.44;1795326;80;20994;-69
2022/04/28 05:41:45;;;;;;;11.10;7.60;;;;;;;9.51;85.80;95760.70;1795454;80;21481;-68
2022/04/28 05:46:57;;;;;;;22.50;20.30;;;;;;;9.28;86.37;95765.78;1795277;80;21002;-69
2022/04/28 05:49:23;;;;;;;11.50;9.60;;;;;;;9.32;86.61;95762.66;1795414;80;21555;-69
2022/04/28 05:51:52;;;;;;;8.17;6.97;;;;;;;9.35;86.73;95770.55;1795482;80;20986;-68
2022/04/28 05:54:21;;;;;;;9.47;6.50;;;;;;;9.35;86.86;95770.55;1795238;80;21014;-69
2022/04/28 05:56:49;;;;;;;7.77;5.53;;;;;;;9.38;87.08;95764.38;1795535;80;21477;-69
2022/04/28 05:59:17;;;;;;;6.67;4.50;;;;;;;9.38;86.87;95776.23;1795475;80;20963;-68
2022/04/28 06:01:46;;;;;;;14.23;8.20;;;;;;;9.38;86.84;95769.65;1795335;80;21051;-69
2022/04/28 06:04:15;;;;;;;10.03;8.77;;;;;;;9.39;86.97;95777.96;1794898;80;21102;-68
2022/04/28 06:06:44;;;;;;;12.30;11.07;;;;;;;9.36;86.94;95774.05;1795588;80;21070;-68
2022/04/28 06:09:19;;;;;;;14.43;11.13;;;;;;;9.36;86.93;95776.69;1777964;80;21007;-68
2022/04/28 06:11:47;;;;;;;15.47;11.40;;;;;;;9.35;86.85;95782.41;1795540;80;20995;-68
2022/04/28 06:14:14;;;;;;;18.70;12.17;;;;;;;9.34;86.86;95774.51;1795394;80;21073;-68
2022/04/28 06:16:43;;;;;;;10.97;8.20;;;;;;;9.34;86.95;95773.19;1795533;80;21037;-69
2022/04/28 06:19:17;;;;;;;10.20;7.23;;;;;;;9.33;87.30;95778.05;1793963;80;21026;-68
2022/04/28 06:21:45;;;;;;;11.17;8.23;;;;;;;9.33;87.23;95781.55;1790767;80;21031;-69
2022/04/28 06:24:12;;;;;;;11.07;7.97;;;;;;;9.36;87.06;95778.87;1795642;80;20951;-69
2022/04/28 06:26:39;;;;;;;16.03;8.80;;;;;;;9.37;87.13;95777.10;1795527;80;21000;-69
2022/04/28 06:29:07;;;;;;;9.60;6.67;;;;;;;9.42;87.43;95785.37;1795557;80;20962;-69
2022/04/28 06:31:34;;;;;;;6.63;4.90;;;;;;;9.42;87.58;95777.92;1795226;80;21002;-69
2022/04/28 06:34:03;;;;;;;13.47;8.80;;;;;;;9.44;87.53;95778.78;1753011;80;21457;-69
2022/04/28 06:36:31;;;;;;;21.73;12.00;;;;;;;9.51;87.58;95782.64;1795156;80;21050;-68
2022/04/28 06:38:58;;;;;;;14.43;10.00;;;;;;;9.61;87.26;95780.78;1795543;80;20990;-68
2022/04/28 06:41:25;;;;;;;16.73;12.27;;;;;;;9.71;87.20;95787.68;1795607;80;21445;-68
2022/04/28 06:43:56;;;;;;;12.17;9.47;;;;;;;9.83;87.29;95779.22;1795200;80;21458;-68
2022/04/28 06:46:37;;;;;;;8.68;7.05;;;;;;;9.90;86.75;95777.80;1730877;80;21026;-68
2022/04/28 06:49:22;;;;;;;9.60;6.10;;;;;;;9.91;86.12;95779.98;1795223;80;21003;-68
2022/04/28 06:51:53;;;;;;;7.30;4.93;;;;;;;9.96;86.36;95777.70;1790997;80;21050;-68
2022/04/28 06:54:27;;;;;;;7.03;5.93;;;;;;;9.90;86.02;95779.53;1752051;80;20980;-69
2022/04/28 06:56:54;;;;;;;6.55;4.28;;;;;;;9.90;86.15;95777.80;1787256;80;20999;-68
2022/04/28 06:59:21;;;;;;;3.50;3.20;;;;;;;9.96;85.17;95782.11;1787385;80;20947;-68
2022/04/28 07:01:48;;;;;;;5.33;2.40;;;;;;;10.00;84.64;95781.16;1754098;80;20994;-69
2022/04/28 07:04:16;;;;;;;4.40;3.45;;;;;;;10.02;83.29;95781.14;1786958;80;21449;-68
2022/04/28 07:06:43;;;;;;;2.73;2.07;;;;;;;9.96;80.61;95783.42;1787017;80;20991;-68
2022/04/28 07:09:10;;;;;;;2.87;1.97;;;;;;;9.92;81.37;95780.39;1787304;80;21397;-68
2022/04/28 07:11:37;;;;;;;3.17;1.67;;;;;;;9.92;81.16;95784.34;1786978;80;20991;-69
2022/04/28 07:14:06;;;;;;;6.53;3.60;;;;;;;9.95;81.28;95784.30;1783673;80;21043;-66
2022/04/28 07:16:51;;;;;;;5.17;2.80;;;;;;;9.98;81.17;95784.28;1787417;80;21046;-66
2022/04/28 07:19:23;;;;;;;5.03;1.80;;;;;;;9.96;80.97;95799.24;1787159;80;21496;-66
2022/04/28 07:21:51;;;;;;;5.00;1.67;;;;;;;9.99;81.64;95791.73;1787613;80;21007;-66
2022/04/28 07:24:18;;;;;;;3.77;2.03;;;;;;;9.97;80.93;95795.70;1787038;80;21018;-66
2022/04/28 07:26:46;;;;;;;4.43;2.33;;;;;;;9.99;80.89;95795.69;1787204;80;20972;-66
2022/04/28 07:29:13;;;;;;;1.90;1.30;;;;;;;10.01;80.66;95796.55;1786880;80;21027;-66
2022/04/28 07:31:43;;;;;;;2.37;0.60;;;;;;;9.96;79.87;95801.87;1779309;80;21059;-66
2022/04/28 07:34:10;;;;;;;2.20;1.40;;;;;;;9.90;79.77;95802.84;1787106;80;20997;-66
2022/04/28 07:36:55;;;;;;;0.80;0.60;;;;;;;9.99;80.63;95804.92;1787001;80;21043;-66
2022/04/28 07:39:28;;;;;;;2.62;2.30;;;;;;;9.95;77.93;95805.39;1787223;80;20984;-66
2022/04/28 07:42:12;;;;;;;2.33;1.90;;;;;;;10.06;79.61;95813.18;1786778;80;21481;-66
2022/04/28 07:44:40;;;;;;;1.60;1.00;;;;;;;10.06;78.87;95815.36;1787177;80;20986;-66
2022/04/28 07:47:08;;;;;;;0.50;0.40;;;;;;;9.99;78.13;95817.65;1787083;80;21501;-66
2022/04/28 07:49:45;;;;;;;2.00;0.40;;;;;;;9.97;78.01;95814.16;1785592;80;21022;-66
2022/04/28 07:52:12;;;;;;;0.70;0.40;;;;;;;9.89;77.09;95815.57;1786942;80;21003;-66
2022/04/28 07:54:40;;;;;;;0.30;0.30;;;;;;;9.89;76.35;95816.89;1790127;80;21006;-66
2022/04/28 07:57:07;;;;;;;0.80;0.28;;;;;;;9.83;76.04;95822.70;1795738;80;20995;-66
2022/04/28 07:59:34;;;;;;;0.30;0.20;;;;;;;9.85;76.22;95825.74;1795404;80;21054;-66
2022/04/28 08:02:08;;;;;;;0.30;0.30;;;;;;;9.86;76.83;95830.56;1794351;80;21127;-66
2022/04/28 08:04:35;;;;;;;0.47;0.30;;;;;;;9.89;76.60;95839.74;1795083;80;21872;-66
2022/04/28 08:07:01;;;;;;;1.07;0.20;;;;;;;9.84;77.42;95837.16;1795239;80;21011;-66
2022/04/28 08:09:30;;;;;;;0.50;0.20;;;;;;;9.89;76.50;95834.02;1795667;80;20990;-66
2022/04/28 08:11:57;;;;;;;2.27;1.10;;;;;;;9.95;76.07;95840.55;1795490;80;20991;-66
2022/04/28 08:14:25;;;;;;;2.55;1.50;;;;;;;9.91;75.79;95845.42;1795271;80;21082;-66
2022/04/28 08:16:53;;;;;;;4.78;2.37;;;;;;;9.91;76.46;95846.73;1795547;80;21006;-66
2022/04/28 08:19:20;;;;;;;3.47;2.40;;;;;;;9.90;77.07;95851.59;1795265;80;20995;-66
2022/04/28 08:21:49;;;;;;;3.03;1.50;;;;;;;9.85;77.69;95862.64;1794410;80;21050;-66
2022/04/28 08:24:17;;;;;;;3.22;1.90;;;;;;;9.85;77.91;95865.69;1795531;80;21445;-66
2022/04/28 08:26:45;;;;;;;4.58;2.90;;;;;;;9.93;77.44;95862.55;1795449;80;21018;-66
2022/04/28 08:29:12;;;;;;;6.23;3.20;;;;;;;9.92;77.47;95860.78;1795418;80;21026;-66
2022/04/28 08:31:46;;;;;;;6.85;3.55;;;;;;;9.92;78.31;95864.28;1795320;80;20991;-66
2022/04/28 08:34:15;;;;;;;6.05;2.87;;;;;;;9.88;78.01;95871.82;1794925;80;21054;-66
2022/04/28 08:36:42;;;;;;;4.17;2.95;;;;;;;9.86;77.69;95872.28;1795299;80;21006;-66
2022/04/28 08:39:10;;;;;;;5.25;3.80;;;;;;;9.86;77.68;95869.64;1795587;80;20991;-66
2022/04/28 08:41:46;;;;;;;7.10;4.70;;;;;;;9.84;78.57;95872.73;1795376;80;20995;-66
2022/04/28 08:44:23;;;;;;;4.55;2.90;;;;;;;9.80;78.28;95872.78;1795560;80;21033;-66
2022/04/28 08:46:54;;;;;;;3.10;2.70;;;;;;;9.70;78.38;95873.32;1793283;80;21516;-66
2022/04/28 08:49:28;;;;;;;4.30;2.93;;;;;;;9.63;79.08;95872.98;1794695;80;20987;-66
2022/04/28 08:52:14;;;;;;;5.27;4.10;;;;;;;9.63;78.96;95875.62;1795418;80;21062;-68
2022/04/28 08:54:45;;;;;;;5.90;3.60;;;;;;;9.52;79.92;95875.28;1793054;80;21549;-68
2022/04/28 08:57:13;;;;;;;6.67;3.90;;;;;;;9.52;79.94;95871.34;1786999;80;21029;-68
2022/04/28 08:59:41;;;;;;;8.23;5.77;;;;;;;9.54;80.24;95875.25;1787054;80;21046;-66
2022/04/28 09:02:14;;;;;;;9.03;5.70;;;;;;;9.56;80.63;95873.48;1786925;80;21055;-65
2022/04/28 09:05:06;;;;;;;6.67;4.50;;;;;;;9.59;80.55;95880.48;1786802;80;21015;-66
2022/04/28 09:07:48;;;;;;;11.03;6.50;;;;;;;9.56;80.79;95879.20;1786841;80;21086;-66
2022/04/28 09:10:32;;;;;;;8.93;4.97;;;;;;;9.64;81.06;95882.17;1751758;80;21457;-66
2022/04/28 09:16:00;;;;;;;3.52;2.45;;;;;;;9.81;81.14;95883.31;1786511;80;21039;-68
2022/04/28 09:18:28;;;;;;;6.13;2.50;;;;;;;9.85;79.80;95892.95;1786846;80;21493;-68
2022/04/28 09:20:56;;;;;;;4.77;2.73;;;;;;;9.91;79.75;95886.73;1786744;80;21030;-68
2022/04/28 09:23:23;;;;;;;4.13;2.63;;;;;;;9.94;79.28;95895.45;1786917;80;21110;-68
2022/04/28 09:25:53;;;;;;;6.67;3.97;;;;;;;10.00;79.43;95898.91;1786893;80;21058;-68
2022/04/28 09:28:20;;;;;;;4.07;2.77;;;;;;;10.05;78.70;95894.46;1787251;80;20995;-68
2022/04/28 09:30:51;;;;;;;3.98;2.12;;;;;;;10.04;78.36;95889.64;1787125;80;20975;-68
2022/04/28 09:33:36;;;;;;;4.35;2.52;;;;;;;10.10;77.23;95886.05;1784729;80;21500;-68
2022/04/28 09:36:09;;;;;;;5.03;2.70;;;;;;;10.10;77.29;95886.91;1778324;80;20991;-68
2022/04/28 09:38:53;;;;;;;3.47;1.87;;;;;;;10.12;76.80;95885.14;1750811;80;21014;-68
2022/04/28 09:44:08;;;;;;;6.07;2.53;;;;;;;10.12;77.48;95888.23;1787127;80;20991;-68
2022/04/28 09:46:43;;;;;;;4.50;2.90;;;;;;;10.10;76.40;95899.23;1787031;80;21022;-68
2022/04/28 09:49:13;;;;;;;3.90;2.90;;;;;;;10.14;76.99;95891.72;1754331;80;21489;-68
2022/04/28 09:51:42;;;;;;;4.80;3.07;;;;;;;10.15;76.90;95893.04;1781730;80;21489;-66
2022/04/28 09:54:25;;;;;;;9.70;6.50;;;;;;;10.11;77.18;95901.00;1787049;80;20991;-66
2022/04/28 09:56:54;;;;;;;5.17;3.70;;;;;;;10.13;77.30;95900.51;1794756;80;21038;-66
2022/04/28 09:59:25;;;;;;;5.67;3.13;;;;;;;10.11;77.50;95902.31;1795311;80;20986;-66
2022/04/28 10:01:52;;;;;;;2.83;2.20;;;;;;;10.08;77.46;95903.23;1795382;80;21042;-66
2022/04/28 10:04:19;;;;;;;2.90;2.20;;;;;;;10.06;77.57;95907.64;1795601;80;21015;-66
2022/04/28 10:07:06;;;;;;;3.77;2.02;;;;;;;10.04;77.93;95908.09;1754213;80;21110;-66
2022/04/28 10:09:36;;;;;;;4.83;1.60;;;;;;;10.04;78.09;95912.50;1795647;80;21066;-66
2022/04/28 10:12:07;;;;;;;2.75;1.45;;;;;;;10.11;78.53;95912.41;1795087;80;21007;-65
2022/04/28 10:14:40;;;;;;;3.90;2.35;;;;;;;10.22;78.65;95899.09;1734211;80;21048;-65
2022/04/28 10:17:22;;;;;;;2.60;1.85;;;;;;;10.36;78.38;95896.33;1764493;80;20986;-65
2022/04/28 10:19:56;;;;;;;2.20;1.75;;;;;;;10.54;78.18;95901.80;1795534;80;21439;-65
2022/04/28 10:22:30;;;;;;;2.17;1.42;;;;;;;10.74;77.76;95905.48;1763671;80;21018;-66
2022/04/28 10:33:48;;;;;;;4.78;3.20;;;;;;;11.17;74.98;95903.52;1795403;80;21444;-66
2022/04/28 10:36:18;;;;;;;2.35;1.40;;;;;;;11.26;75.27;95912.17;1795241;80;20978;-66
2022/04/28 10:39:08;;;;;;;2.50;2.08;;;;;;;11.27;74.90;95903.79;1764549;80;20993;-66
2022/04/28 10:41:35;;;;;;;7.10;3.25;;;;;;;11.33;74.22;95910.73;1795089;80;21010;-66
2022/04/28 10:44:16;;;;;;;2.17;1.45;;;;;;;11.37;74.37;95913.77;1795443;80;20975;-66
2022/04/28 10:47:00;;;;;;;2.58;1.45;;;;;;;11.28;74.25;95915.22;1795336;80;20991;-68
2022/04/28 10:49:40;;;;;;;2.95;2.10;;;;;;;11.16;74.29;95922.88;1795378;80;20987;-68
2022/04/28 10:52:23;;;;;;;2.83;1.95;;;;;;;11.10;74.73;95924.31;1795185;80;20998;-68
2022/04/28 10:55:00;;;;;;;13.20;6.08;;;;;;;11.16;74.95;95921.14;1794903;80;21488;-68
2022/04/28 10:57:37;;;;;;;2.02;1.77;;;;;;;11.20;75.15;95927.23;1787385;80;20991;-68
2022/04/28 11:00:05;;;;;;;3.37;1.70;;;;;;;11.22;75.42;95920.16;1787207;80;21560;-68
2022/04/28 11:02:37;;;;;;;1.35;1.25;;;;;;;11.20;75.74;95921.95;1786967;80;20999;-68
2022/04/28 11:05:25;;;;;;;2.77;1.80;;;;;;;11.21;75.68;95926.33;1787189;80;21516;-68
2022/04/28 11:07:53;;;;;;;2.80;2.20;;;;;;;11.32;75.92;95927.50;1759740;80;21504;-66
2022/04/28 11:10:20;;;;;;;2.27;1.92;;;;;;;11.55;75.72;95922.69;1787426;80;21003;-66
2022/04/28 11:12:50;;;;;;;2.80;2.08;;;;;;;11.79;74.79;95915.22;1787314;80;21003;-66
2022/04/28 11:15:18;;;;;;;3.70;2.75;;;;;;;11.90;74.18;95916.81;1787113;80;21046;-66
2022/04/28 11:17:45;;;;;;;3.17;2.12;;;;;;;12.00;74.71;95912.22;1786959;80;21027;-66
2022/04/28 11:20:16;;;;;;;2.90;2.33;;;;;;;12.06;73.26;95919.16;1786987;80;21430;-66
2022/04/28 11:22:51;;;;;;;3.67;2.67;;;;;;;12.05;73.39;95914.78;1786342;80;21035;-66
2022/04/28 11:25:20;;;;;;;5.78;3.45;;;;;;;11.97;73.26;95914.03;1787200;80;21022;-66
2022/04/28 11:27:50;;;;;;;5.47;3.20;;;;;;;11.84;73.67;95919.97;1787129;80;21046;-66
2022/04/28 11:30:24;;;;;;;4.17;2.40;;;;;;;11.94;73.62;95926.86;1787198;80;21026;-66
2022/04/28 11:32:57;;;;;;;2.70;1.85;;;;;;;11.96;72.91;95921.56;1787205;80;21532;-66
2022/04/28 11:35:35;;;;;;;9.20;1.60;;;;;;;12.21;71.72;95923.28;1787317;80;20991;-66
2022/04/28 11:38:02;;;;;;;0.88;0.88;;;;;;;12.75;72.41;95925.25;1787053;80;21493;-68
2022/04/28 11:40:33;;;;;;;0.60;0.50;;;;;;;13.47;70.55;95921.86;1787266;80;20955;-68
2022/04/28 11:43:00;;;;;;;2.08;1.20;;;;;;;14.03;65.56;95913.75;1786515;80;21019;-68
2022/04/28 11:45:32;;;;;;;2.40;1.65;;;;;;;14.25;65.75;95913.17;1787194;80;21011;-68
2022/04/28 11:48:00;;;;;;;4.03;1.42;;;;;;;14.36;64.77;95917.70;1787091;80;20979;-68
2022/04/28 11:50:30;;;;;;;3.22;1.12;;;;;;;14.26;63.71;95918.88;1787147;80;20999;-68
2022/04/28 11:53:07;;;;;;;0.95;0.75;;;;;;;14.14;62.52;95917.92;1786861;80;21107;-68
2022/04/28 11:55:38;;;;;;;0.88;0.65;;;;;;;13.87;60.82;95923.50;1789282;80;21580;-68
2022/04/28 11:58:08;;;;;;;1.72;1.07;;;;;;;13.57;61.55;95928.67;1795527;80;21030;-68
2022/04/28 12:00:44;;;;;;;2.98;1.32;;;;;;;13.42;63.22;95933.43;1795604;80;20982;-68
2022/04/28 12:03:23;;;;;;;9.70;2.45;;;;;;;13.20;64.39;95937.47;1795446;80;21010;-68
2022/04/28 12:05:52;;;;;;;3.87;2.40;;;;;;;13.04;65.13;95938.74;1795448;80;20979;-67
2022/04/28 12:08:24;;;;;;;3.52;1.72;;;;;;;13.01;65.37;95938.81;1795445;80;21050;-68
2022/04/28 12:19:19;;;;;;;3.08;1.75;;;;;;;12.94;64.71;95942.91;1795594;80;21480;-68
2022/04/28 12:21:42;;;;;;;1.10;0.80;;;;;;;12.88;64.85;95940.88;1791159;80;21452;-68
2022/04/28 12:24:19;;;;;;;0.60;0.60;;;;;;;12.92;64.90;95945.17;1795138;80;21026;-68
2022/04/28 12:26:49;;;;;;;2.40;1.02;;;;;;;13.01;63.56;95937.03;1781705;80;21018;-68
2022/04/28 12:29:19;;;;;;;1.75;0.70;;;;;;;13.14;64.49;95933.65;1795544;80;21480;-68
2022/04/28 12:31:47;;;;;;;1.55;0.88;;;;;;;13.33;64.65;95935.42;1764399;80;21046;-68
2022/04/28 12:34:20;;;;;;;1.98;0.90;;;;;;;13.44;63.83;95931.22;1795156;80;21527;-68
2022/04/28 12:36:53;;;;;;;1.77;0.93;;;;;;;13.77;65.09;95929.50;1795412;80;21528;-68